Time;durP1;ratioP1;P1;durP2;ratioP2;P2;SDS_P1;SDS_P2;PMS_P1;PMS_P2;Temp;Humidity;BMP_temperature;BMP_pressure;BME280_temperature;BME280_humidity;BME280_pressure;Samples;Min_cycle;Max_cycle;Signal;HPM_P1;HPM_P2
2021/09/18 00:01:14;;;;;;;;;3.00;3.00;;;;;20.37;57.41;97998.53;4979481;28;102734;-92
2021/09/18 00:03:41;;;;;;;;;3.67;3.33;;;;;20.37;57.76;98001.28;4976996;28;102790;-92
2021/09/18 00:06:09;;;;;;;;;5.00;5.00;;;;;20.33;57.82;98000.19;4971990;28;104343;-92
2021/09/18 00:08:36;;;;;;;;;2.67;2.67;;;;;20.33;57.30;97994.69;4980566;28;102300;-92
2021/09/18 00:11:03;;;;;;;;;3.67;3.67;;;;;20.33;57.12;97994.69;4976838;28;102368;-92
2021/09/18 00:13:32;;;;;;;;;3.67;3.67;;;;;20.34;57.42;98001.84;4982102;28;102482;-92
2021/09/18 00:15:59;;;;;;;;;2.67;2.33;;;;;20.31;57.31;98002.38;4979223;28;104200;-92
2021/09/18 00:18:27;;;;;;;;;4.00;4.00;;;;;20.30;57.46;97994.44;4979631;28;102386;-92
2021/09/18 00:20:55;;;;;;;;;4.33;3.67;;;;;20.28;57.03;98008.41;4973284;28;102157;-92
2021/09/18 00:23:23;;;;;;;;;5.00;3.67;;;;;20.28;57.03;97997.41;4982449;28;102447;-92
2021/09/18 00:25:50;;;;;;;;;3.00;3.00;;;;;20.27;57.32;98003.19;4978090;28;104800;-92
2021/09/18 00:28:17;;;;;;;;;3.67;3.67;;;;;20.27;57.21;98001.25;4978087;28;104565;-92
2021/09/18 00:30:45;;;;;;;;;3.00;3.00;;;;;20.29;57.31;98004.56;4975620;28;102307;-91
2021/09/18 00:33:12;;;;;;;;;3.67;3.67;;;;;20.28;57.07;98016.63;4978093;28;102156;-91
2021/09/18 00:35:39;;;;;;;;;4.00;4.00;;;;;20.29;56.81;98006.47;4974630;28;104086;-91
2021/09/18 00:38:06;;;;;;;;;4.00;4.00;;;;;20.27;57.07;98009.50;4981137;28;102454;-91
2021/09/18 00:40:33;;;;;;;;;4.00;4.00;;;;;20.27;57.19;98012.25;4976843;28;102223;-91
2021/09/18 00:43:01;;;;;;;;;3.00;3.00;;;;;20.25;57.60;98014.47;4978712;28;102853;-91
2021/09/18 00:45:28;;;;;;;;;4.00;4.00;;;;;20.23;57.72;98019.41;4972139;28;104058;-91
2021/09/18 00:47:55;;;;;;;;;4.33;4.33;;;;;20.23;57.64;98013.06;4975748;28;102343;-91
2021/09/18 00:50:22;;;;;;;;;3.33;3.33;;;;;20.22;57.42;98020.50;4977840;28;102447;-91
2021/09/18 00:52:49;;;;;;;;;5.00;5.00;;;;;20.21;57.02;98018.03;4980657;28;102633;-92
2021/09/18 00:55:16;;;;;;;;;3.00;3.00;;;;;20.21;56.96;98015.28;4977046;28;104203;-91
2021/09/18 00:57:44;;;;;;;;;2.67;2.67;;;;;20.21;56.77;98010.63;4975010;28;103078;-92
2021/09/18 01:00:13;;;;;;;;;3.00;2.67;;;;;20.20;56.88;98017.22;4975337;28;102169;-92
2021/09/18 01:02:41;;;;;;;;;4.00;4.00;;;;;20.18;56.55;98018.56;4960327;28;102467;-92
2021/09/18 01:05:09;;;;;;;;;3.67;3.00;;;;;20.17;57.11;98006.78;4978772;28;104093;-91
2021/09/18 01:07:37;;;;;;;;;3.00;3.00;;;;;20.17;56.88;98020.53;4980073;28;102421;-91
2021/09/18 01:10:05;;;;;;;;;1.67;1.67;;;;;20.19;56.97;98017.47;4980413;28;102565;-92
2021/09/18 01:12:32;;;;;;;;;2.50;2.50;;;;;20.17;57.15;98012.28;4978101;28;102378;-92
2021/09/18 01:15:00;;;;;;;;;3.33;3.33;;;;;20.17;56.61;98023.28;4977658;28;104117;-92
2021/09/18 01:17:28;;;;;;;;;3.00;3.00;;;;;20.16;56.72;98016.13;4977719;28;102310;-91
2021/09/18 01:19:55;;;;;;;;;2.67;2.67;;;;;20.15;56.95;98011.72;4975115;28;102255;-91
2021/09/18 01:22:23;;;;;;;;;2.33;2.33;;;;;20.14;57.11;98012.81;4977660;28;102526;-92
2021/09/18 01:24:50;;;;;;;;;2.33;2.33;;;;;20.14;56.76;98009.25;4980736;28;103961;-92
2021/09/18 01:27:18;;;;;;;;;1.00;1.00;;;;;20.12;56.83;98004.06;4975273;28;102048;-92
2021/09/18 01:29:45;;;;;;;;;3.00;3.00;;;;;20.12;56.33;98009.53;4975753;28;102426;-92
2021/09/18 01:32:18;;;;;;;;;2.00;2.00;;;;;20.10;56.52;98010.91;4983691;28;102549;-92
2021/09/18 01:34:45;;;;;;;;;1.67;1.67;;;;;20.09;56.21;98012.81;4973548;28;104509;-92
2021/09/18 01:37:13;;;;;;;;;2.00;2.00;;;;;20.09;56.73;98007.34;4976486;28;102435;-92
2021/09/18 01:39:40;;;;;;;;;1.67;1.67;;;;;20.08;56.69;98005.72;4980111;28;102474;-92
2021/09/18 01:42:07;;;;;;;;;1.00;1.00;;;;;20.08;56.51;98008.47;4977565;28;102450;-92
2021/09/18 01:44:35;;;;;;;;;1.00;1.00;;;;;20.09;56.12;98003.75;4977313;28;104124;-92
2021/09/18 01:47:02;;;;;;;;;2.00;2.00;;;;;20.09;56.38;97999.09;4977926;28;102331;-90
2021/09/18 01:49:31;;;;;;;;;1.00;1.00;;;;;20.08;56.31;97992.00;4976634;28;103014;-91
2021/09/18 01:52:19;;;;;;;;;2.00;1.00;;;;;20.09;56.47;98001.03;4976583;28;102381;-91
2021/09/18 01:54:47;;;;;;;;;0.67;0.67;;;;;20.06;56.54;97988.69;4975449;28;104396;-90
2021/09/18 01:57:14;;;;;;;;;1.33;1.33;;;;;20.05;56.37;97990.59;4975901;28;102089;-91
2021/09/18 01:59:41;;;;;;;;;0.33;0.33;;;;;20.03;56.18;97992.00;4974565;28;103152;-91
2021/09/18 02:02:08;;;;;;;;;1.00;1.00;;;;;20.04;56.46;97997.19;4976983;28;102693;-90
2021/09/18 02:04:36;;;;;;;;;0.67;0.67;;;;;20.02;56.31;97998.56;4974945;28;103498;-90
2021/09/18 02:07:03;;;;;;;;;1.00;1.00;;;;;19.99;56.43;97985.41;4976403;28;102409;-91
2021/09/18 02:09:30;;;;;;;;;1.67;1.67;;;;;20.01;56.03;97996.91;4978922;28;102513;-90
2021/09/18 02:11:57;;;;;;;;;2.00;1.33;;;;;19.99;55.94;97997.19;4976225;28;102121;-91
2021/09/18 02:14:25;;;;;;;;;1.00;1.00;;;;;19.98;56.10;98008.47;4977698;28;103704;-90
2021/09/18 02:16:52;;;;;;;;;2.00;2.00;;;;;19.96;56.13;97989.50;4974312;28;103027;-91
2021/09/18 02:19:19;;;;;;;;;1.67;1.67;;;;;19.98;56.00;97992.00;4975517;28;102802;-90
2021/09/18 02:21:46;;;;;;;;;1.00;0.67;;;;;19.98;56.17;97992.81;4978265;28;102245;-91
2021/09/18 02:24:15;;;;;;;;;1.00;1.00;;;;;19.97;55.73;97987.59;4973091;28;104270;-90
2021/09/18 02:26:43;;;;;;;;;0.67;0.67;;;;;19.98;56.00;97992.00;4977069;28;102388;-91
2021/09/18 02:29:10;;;;;;;;;1.00;1.00;;;;;19.97;56.17;97987.59;4975334;28;102143;-90
2021/09/18 02:31:37;;;;;;;;;0.00;0.00;;;;;19.97;56.12;97991.16;4979324;28;102605;-91
2021/09/18 02:34:05;;;;;;;;;0.67;0.67;;;;;19.93;56.32;97997.47;4975622;28;104247;-91
2021/09/18 02:36:32;;;;;;;;;0.67;0.67;;;;;19.95;56.35;97987.03;4975665;28;102128;-91
2021/09/18 02:38:59;;;;;;;;;1.00;1.00;;;;;19.93;55.72;97978.28;4976025;28;102065;-90
2021/09/18 02:41:26;;;;;;;;;1.33;1.00;;;;;19.93;55.87;97989.25;4981559;28;102475;-90
2021/09/18 02:43:53;;;;;;;;;0.67;0.67;;;;;19.91;55.71;97980.47;4976404;28;105132;-91
2021/09/18 02:46:21;;;;;;;;;1.00;1.00;;;;;19.91;55.81;97984.03;4974079;28;103304;-91
2021/09/18 02:48:48;;;;;;;;;1.00;1.00;;;;;19.90;55.80;97982.38;4973982;28;102151;-92
2021/09/18 02:51:22;;;;;;;;;1.00;1.00;;;;;19.91;55.93;97984.03;4977623;28;102457;-91
2021/09/18 02:53:49;;;;;;;;;2.00;2.00;;;;;19.91;55.90;97991.44;4974494;28;103871;-91
2021/09/18 02:56:16;;;;;;;;;1.00;1.00;;;;;19.90;55.87;97989.81;4973646;28;102141;-91
2021/09/18 02:58:44;;;;;;;;;1.33;1.33;;;;;19.91;55.55;97983.19;4976543;28;103011;-91
2021/09/18 03:01:11;;;;;;;;;0.67;0.67;;;;;19.90;55.39;97984.31;4974138;28;103373;-91
2021/09/18 03:03:38;;;;;;;;;2.00;1.67;;;;;19.90;55.87;97995.31;4973525;28;103117;-92
2021/09/18 03:06:06;;;;;;;;;2.00;2.00;;;;;19.89;55.96;97999.97;4973832;28;102271;-91
2021/09/18 03:08:33;;;;;;;;;1.00;1.00;;;;;19.87;55.94;97987.59;4972707;28;102118;-91
2021/09/18 03:11:01;;;;;;;;;1.67;0.67;;;;;19.87;55.75;97991.16;4976842;28;102186;-91
2021/09/18 03:13:28;;;;;;;;;1.67;1.33;;;;;19.87;55.61;97985.69;4975182;28;104034;-91
2021/09/18 03:15:56;;;;;;;;;1.00;1.00;;;;;19.87;55.99;97984.84;4974527;28;102148;-91
2021/09/18 03:18:23;;;;;;;;;2.67;2.00;;;;;19.85;55.79;97981.59;4976099;28;102172;-92
2021/09/18 03:20:50;;;;;;;;;0.67;0.67;;;;;19.85;55.52;97984.31;4976205;28;102241;-92
2021/09/18 03:23:17;;;;;;;;;0.67;0.67;;;;;19.85;55.55;97976.09;4977230;28;104250;-91
2021/09/18 03:25:44;;;;;;;;;1.33;0.67;;;;;19.83;55.74;97973.63;4980019;28;102507;-92
2021/09/18 03:28:12;;;;;;;;;1.67;1.67;;;;;19.83;55.43;97978.28;4974725;28;102401;-91
2021/09/18 03:30:39;;;;;;;;;1.33;0.67;;;;;19.84;55.55;97979.94;4972363;28;103104;-92
2021/09/18 03:33:06;;;;;;;;;1.00;1.00;;;;;19.84;55.22;97979.94;4972273;28;104404;-91
2021/09/18 03:35:33;;;;;;;;;1.33;1.33;;;;;19.84;55.71;97982.69;4970729;28;102514;-92
2021/09/18 03:38:01;;;;;;;;;2.00;1.00;;;;;19.83;55.31;97970.03;4972691;28;102228;-92
2021/09/18 03:40:28;;;;;;;;;2.00;2.00;;;;;19.83;55.58;97979.09;4976158;28;102399;-92
2021/09/18 03:42:55;;;;;;;;;0.67;0.67;;;;;19.82;55.68;97971.13;4976960;28;104155;-92
2021/09/18 03:45:22;;;;;;;;;2.00;2.00;;;;;19.80;55.67;97973.34;4980179;28;102482;-92
2021/09/18 03:47:49;;;;;;;;;2.00;2.00;;;;;19.80;55.41;97965.13;4977125;28;102468;-92
2021/09/18 03:50:17;;;;;;;;;1.00;1.00;;;;;19.78;55.35;97970.88;4979298;28;102368;-92
2021/09/18 03:52:44;;;;;;;;;2.00;1.67;;;;;19.78;55.33;97970.03;4978281;28;104188;-91
2021/09/18 03:55:11;;;;;;;;;3.00;1.67;;;;;19.76;55.50;97956.63;4975767;28;105859;-92
2021/09/18 03:57:38;;;;;;;;;1.33;1.33;;;;;19.77;55.50;97968.44;4976218;28;102199;-92
2021/09/18 04:00:06;;;;;;;;;2.00;2.00;;;;;19.75;55.09;97971.44;4978061;28;102598;-92
2021/09/18 04:02:33;;;;;;;;;1.00;1.00;;;;;19.74;55.17;97982.66;4976119;28;104102;-92
2021/09/18 04:05:01;;;;;;;;;2.00;2.00;;;;;19.74;54.99;97971.69;4973666;28;102266;-92
2021/09/18 04:07:29;;;;;;;;;0.67;0.67;;;;;19.75;55.32;97974.19;4979312;28;102588;-92
2021/09/18 04:09:56;;;;;;;;;1.00;1.00;;;;;19.75;55.18;97976.91;4977126;28;102230;-92
2021/09/18 04:12:23;;;;;;;;;1.00;1.00;;;;;19.76;55.27;97984.06;4977908;28;104199;-91
2021/09/18 04:14:51;;;;;;;;;1.67;1.67;;;;;19.77;55.19;97985.69;4981914;28;102537;-91
2021/09/18 04:17:18;;;;;;;;;2.00;1.00;;;;;19.74;54.96;97980.75;4978293;28;102542;-91
2021/09/18 04:19:45;;;;;;;;;1.33;1.00;;;;;19.74;55.28;97979.94;4983991;28;102407;-92
2021/09/18 04:22:12;;;;;;;;;1.67;1.67;;;;;19.75;55.20;97981.59;4977109;28;104229;-91
2021/09/18 04:24:39;;;;;;;;;3.00;3.00;;;;;19.74;55.02;97982.66;4977834;28;102771;-91
2021/09/18 04:27:07;;;;;;;;;0.67;0.67;;;;;19.70;54.98;97981.56;4983282;28;102363;-91
2021/09/18 04:29:34;;;;;;;;;1.33;1.33;;;;;19.69;55.25;97983.50;4979571;28;102486;-91
2021/09/18 04:32:02;;;;;;;;;1.67;1.67;;;;;19.69;54.86;97991.72;4977384;28;103679;-91
2021/09/18 04:34:29;;;;;;;;;1.33;1.33;;;;;19.69;54.89;97991.72;4978137;28;102406;-91
2021/09/18 04:36:59;;;;;;;;;0.67;0.67;;;;;19.68;54.95;97992.03;4979837;28;102430;-91
2021/09/18 04:39:26;;;;;;;;;2.00;2.00;;;;;19.67;54.70;97993.94;4978522;28;102536;-91
2021/09/18 04:41:54;;;;;;;;;2.00;2.00;;;;;19.66;54.57;97994.19;4980777;28;104172;-91
2021/09/18 04:44:21;;;;;;;;;1.67;1.00;;;;;19.67;55.19;97996.69;4982614;28;103169;-91
2021/09/18 04:46:48;;;;;;;;;1.33;1.33;;;;;19.68;54.75;98000.25;4975109;28;102089;-91
2021/09/18 04:49:16;;;;;;;;;1.67;1.67;;;;;19.66;54.65;97989.53;4975909;28;102550;-91
2021/09/18 04:51:43;;;;;;;;;0.67;0.67;;;;;19.67;54.56;97993.94;4978791;28;104251;-91
2021/09/18 04:54:10;;;;;;;;;1.00;1.00;;;;;19.67;54.90;97991.19;4976913;28;102475;-91
2021/09/18 04:56:38;;;;;;;;;1.00;1.00;;;;;19.65;54.93;97992.53;4978283;28;102489;-91
2021/09/18 04:59:05;;;;;;;;;2.00;2.00;;;;;19.65;54.69;97992.53;4976790;28;102512;-91
2021/09/18 05:01:32;;;;;;;;;2.00;2.00;;;;;19.64;54.90;97985.41;4980561;28;104317;-91
2021/09/18 05:03:59;;;;;;;;;2.00;2.00;;;;;19.64;54.60;97996.38;4978874;28;102110;-91
2021/09/18 05:06:27;;;;;;;;;1.67;1.67;;;;;19.64;54.72;97996.38;4978796;28;102391;-91
2021/09/18 05:08:56;;;;;;;;;2.00;2.00;;;;;19.60;54.54;97999.69;4982729;28;102481;-91
2021/09/18 05:11:23;;;;;;;;;1.67;1.67;;;;;19.59;54.64;97997.19;4976955;28;104133;-91
2021/09/18 05:13:50;;;;;;;;;2.00;2.00;;;;;19.59;54.77;97998.03;4977095;28;102159;-91
2021/09/18 05:16:21;;;;;;;;;1.67;1.67;;;;;19.60;54.60;98004.34;4975644;28;102054;-91
2021/09/18 05:18:48;;;;;;;;;2.67;2.00;;;;;19.57;54.49;98008.47;4980471;28;102466;-91
2021/09/18 05:21:15;;;;;;;;;2.00;2.00;;;;;19.59;54.23;98005.44;4981603;28;104138;-91
2021/09/18 05:23:42;;;;;;;;;2.00;2.00;;;;;19.59;54.42;98011.75;4977617;28;104045;-91
2021/09/18 05:26:11;;;;;;;;;2.67;2.00;;;;;19.60;54.41;98005.16;4974295;28;102352;-91
2021/09/18 05:28:38;;;;;;;;;2.00;1.67;;;;;19.62;54.42;98012.31;4978772;28;102083;-91
2021/09/18 05:31:05;;;;;;;;;2.00;2.00;;;;;19.59;54.67;98011.75;4980243;28;103135;-91
2021/09/18 05:33:32;;;;;;;;;2.00;2.00;;;;;19.58;54.19;98009.28;4977255;28;102194;-91
2021/09/18 05:36:00;;;;;;;;;3.00;3.00;;;;;19.56;54.48;98009.56;4978422;28;102206;-91
2021/09/18 05:38:27;;;;;;;;;2.00;2.00;;;;;19.55;54.54;98010.66;4977127;28;102445;-91
2021/09/18 05:40:54;;;;;;;;;2.33;2.33;;;;;19.54;54.42;98014.47;4975403;28;104199;-91
2021/09/18 05:43:21;;;;;;;;;3.00;3.00;;;;;19.53;54.40;98012.84;4976157;28;102491;-91
2021/09/18 05:45:48;;;;;;;;;3.00;2.67;;;;;19.55;54.30;98009.81;4975843;28;102389;-91
2021/09/18 05:48:37;;;;;;;;;2.00;2.00;;;;;19.54;54.42;98019.97;4977299;28;102603;-91
2021/09/18 05:51:04;;;;;;;;;2.67;2.67;;;;;19.53;54.13;98012.84;4971623;28;103769;-91
2021/09/18 05:53:32;;;;;;;;;2.33;2.33;;;;;19.52;54.31;98004.88;4981717;28;103507;-91
2021/09/18 05:56:00;;;;;;;;;1.67;1.67;;;;;19.51;54.28;98017.78;4978221;28;102210;-91
2021/09/18 05:58:27;;;;;;;;;3.00;2.00;;;;;19.53;54.27;98017.50;4974823;28;102538;-91
2021/09/18 06:01:19;;;;;;;;;2.33;2.33;;;;;19.52;54.45;98008.47;4975376;28;104251;-91
2021/09/18 06:03:56;;;;;;;;;3.67;2.67;;;;;19.54;54.31;98005.44;4977523;28;102169;-92
2021/09/18 06:06:36;;;;;;;;;3.67;3.67;;;;;19.53;54.26;98012.03;4978486;28;102174;-95
2021/09/18 06:17:02;;;;;;;;;2.67;2.67;;;;;19.51;54.21;98020.50;4973534;28;102515;-94
2021/09/18 06:19:39;;;;;;;;;3.00;3.00;;;;;19.51;54.46;98019.69;4974047;28;102422;-91
2021/09/18 06:22:06;;;;;;;;;3.00;3.00;;;;;19.49;54.26;98021.91;4976795;28;103151;-91
2021/09/18 06:24:33;;;;;;;;;3.00;3.00;;;;;19.48;54.30;98026.56;4974048;28;104229;-92
2021/09/18 06:27:00;;;;;;;;;3.67;3.33;;;;;19.46;54.29;98017.75;4977908;28;102054;-91
2021/09/18 06:29:28;;;;;;;;;2.67;2.67;;;;;19.48;53.96;98020.25;4973905;28;101997;-89
2021/09/18 06:31:55;;;;;;;;;3.00;3.00;;;;;19.47;54.42;98018.59;4976797;28;102625;-90
2021/09/18 06:34:22;;;;;;;;;4.67;4.00;;;;;19.49;54.22;98028.22;4976484;28;104080;-90
2021/09/18 06:36:50;;;;;;;;;3.33;3.33;;;;;19.47;54.02;98024.91;4978402;28;102071;-90
2021/09/18 06:39:17;;;;;;;;;3.67;3.67;;;;;19.48;54.35;98018.34;4969978;28;102210;-89
2021/09/18 06:41:44;;;;;;;;;3.00;2.67;;;;;19.49;54.17;98022.72;4976952;28;104505;-91
2021/09/18 06:44:12;;;;;;;;;3.33;3.33;;;;;19.48;54.31;98021.06;4973215;28;104266;-90
2021/09/18 06:46:39;;;;;;;;;3.00;3.00;;;;;19.50;54.30;98023.53;4978411;28;102261;-90
2021/09/18 06:49:06;;;;;;;;;4.00;4.00;;;;;19.49;54.30;98027.38;4976411;28;102447;-90
2021/09/18 06:51:34;;;;;;;;;4.00;3.00;;;;;19.48;54.33;98026.56;4974821;28;102234;-90
2021/09/18 06:54:01;;;;;;;;;3.67;3.33;;;;;19.49;54.47;98036.44;4974924;28;103760;-90
2021/09/18 06:56:28;;;;;;;;;3.67;2.67;;;;;19.49;54.25;98030.94;4973431;28;102199;-91
2021/09/18 06:58:56;;;;;;;;;3.33;3.33;;;;;19.50;54.34;98039.97;4977417;28;103942;-90
2021/09/18 07:01:23;;;;;;;;;3.00;3.00;;;;;19.47;54.37;98035.88;4975431;28;102406;-90
2021/09/18 07:03:51;;;;;;;;;4.67;3.00;;;;;19.49;54.42;98039.19;4971835;28;104276;-90
2021/09/18 07:06:19;;;;;;;;;2.33;2.33;;;;;19.48;54.35;98040.25;4977705;28;103446;-90
2021/09/18 07:08:48;;;;;;;;;4.67;3.67;;;;;19.48;54.26;98040.25;4976580;28;102013;-90
2021/09/18 07:11:15;;;;;;;;;3.33;3.33;;;;;19.47;54.29;98035.03;4976863;28;102723;-90
2021/09/18 07:13:42;;;;;;;;;3.67;2.67;;;;;19.49;54.38;98033.69;4977016;28;104324;-90
2021/09/18 07:16:11;;;;;;;;;2.67;2.67;;;;;19.50;54.25;98039.97;4971519;28;102547;-90
2021/09/18 07:18:38;;;;;;;;;1.67;1.67;;;;;19.51;54.23;98044.38;4973553;28;102261;-91
2021/09/18 07:21:05;;;;;;;;;3.00;3.00;;;;;19.52;54.42;98048.75;4974530;28;102398;-91
2021/09/18 07:23:34;;;;;;;;;3.33;2.67;;;;;19.52;54.21;98040.53;4976314;28;104087;-91
2021/09/18 07:26:01;;;;;;;;;3.33;3.33;;;;;19.50;54.36;98045.47;4978243;28;103083;-92
2021/09/18 07:28:29;;;;;;;;;3.00;3.00;;;;;19.52;54.07;98043.28;4975064;28;102395;-92
2021/09/18 07:30:56;;;;;;;;;3.67;3.67;;;;;19.52;54.12;98044.09;4974558;28;102670;-91
2021/09/18 07:33:24;;;;;;;;;3.67;3.67;;;;;19.53;54.78;98043.03;4974250;28;104496;-91
2021/09/18 07:35:51;;;;;;;;;4.00;4.00;;;;;19.44;55.48;98050.13;4973973;28;103049;-91
2021/09/18 07:38:19;;;;;;;;;4.00;4.00;;;;;19.44;54.73;98044.66;4973807;28;102007;-91
2021/09/18 07:40:46;;;;;;;;;3.33;3.33;;;;;19.46;55.25;98047.94;4974879;28;103269;-92
2021/09/18 07:43:13;;;;;;;;;3.00;3.00;;;;;19.47;55.96;98046.00;4976511;28;104045;-91
2021/09/18 07:45:41;;;;;;;;;3.67;3.67;;;;;19.47;55.87;98046.84;4975378;28;102427;-92
2021/09/18 07:48:08;;;;;;;;;4.33;4.33;;;;;19.45;55.83;98049.00;4975996;28;103660;-92
2021/09/18 07:50:37;;;;;;;;;2.67;2.67;;;;;19.48;55.89;98050.41;4974369;28;102430;-91
2021/09/18 07:53:04;;;;;;;;;4.33;4.33;;;;;19.47;56.08;98038.63;4973814;28;104340;-91
2021/09/18 07:55:36;;;;;;;;;5.67;3.67;;;;;19.47;56.13;98041.34;4972443;28;102482;-92
2021/09/18 07:58:12;;;;;;;;;4.33;4.00;;;;;19.47;55.93;98046.84;4978467;28;102297;-92
2021/09/18 08:00:39;;;;;;;;;4.33;4.33;;;;;19.45;56.16;98038.03;4976670;28;102254;-91
2021/09/18 08:03:06;;;;;;;;;4.67;4.67;;;;;19.45;56.07;98049.00;4974638;28;103583;-91
2021/09/18 08:05:34;;;;;;;;;3.33;3.00;;;;;19.44;56.26;98047.41;4978006;28;102569;-92
2021/09/18 08:08:02;;;;;;;;;3.33;3.33;;;;;19.46;56.02;98055.31;4975940;28;102369;-91
2021/09/18 08:10:29;;;;;;;;;4.00;4.00;;;;;19.45;56.35;98053.69;4973429;28;102647;-92
2021/09/18 08:12:56;;;;;;;;;4.00;4.00;;;;;19.42;56.24;98055.03;4971217;28;104230;-92
2021/09/18 08:15:24;;;;;;;;;5.00;4.67;;;;;19.42;56.43;98055.03;4976147;28;102691;-92
2021/09/18 08:17:51;;;;;;;;;5.33;4.67;;;;;19.42;56.04;98046.78;4979112;28;102310;-92
2021/09/18 08:20:19;;;;;;;;;3.67;3.67;;;;;19.43;56.46;98055.84;4972511;28;102600;-92
2021/09/18 08:22:47;;;;;;;;;3.33;3.33;;;;;19.43;56.42;98055.84;4974422;28;104345;-92
2021/09/18 08:25:14;;;;;;;;;3.67;3.67;;;;;19.42;56.58;98054.19;4973003;28;102999;-92
2021/09/18 08:27:42;;;;;;;;;3.67;3.67;;;;;19.42;56.49;98059.69;4974298;28;102134;-92
2021/09/18 08:30:11;;;;;;;;;3.67;2.67;;;;;19.43;56.50;98053.97;4980803;28;102217;-92
2021/09/18 08:32:39;;;;;;;;;3.67;3.67;;;;;19.43;56.49;98056.72;4978342;28;104364;-92
2021/09/18 08:35:07;;;;;;;;;3.00;3.00;;;;;19.43;56.63;98050.38;4976335;28;102135;-91
2021/09/18 08:37:34;;;;;;;;;3.67;3.67;;;;;19.43;56.78;98059.44;4979304;28;101997;-91
2021/09/18 08:40:03;;;;;;;;;3.67;2.67;;;;;19.41;56.59;98053.38;4976312;28;102521;-91
2021/09/18 08:42:30;;;;;;;;;4.00;4.00;;;;;19.44;56.40;98063.00;4977061;28;104402;-92
2021/09/18 08:44:57;;;;;;;;;4.33;4.00;;;;;19.42;56.59;98055.03;4983205;28;102387;-92
2021/09/18 08:47:25;;;;;;;;;3.67;3.67;;;;;19.42;56.60;98063.25;4981006;28;102868;-92
2021/09/18 08:49:54;;;;;;;;;4.00;4.00;;;;;19.41;56.45;98061.59;4981437;28;102494;-91
2021/09/18 08:52:21;;;;;;;;;3.00;3.00;;;;;19.43;56.74;98062.19;4978718;28;104242;-92
2021/09/18 08:54:49;;;;;;;;;3.33;2.67;;;;;19.43;56.85;98062.19;4977041;28;102111;-91
2021/09/18 08:57:16;;;;;;;;;2.67;2.67;;;;;19.43;56.55;98056.72;4974859;28;103068;-91
2021/09/18 08:59:44;;;;;;;;;2.67;2.67;;;;;19.43;56.85;98055.84;4979265;28;102546;-92
2021/09/18 09:02:13;;;;;;;;;2.67;2.67;;;;;19.43;56.59;98056.72;4979841;28;104103;-92
2021/09/18 09:04:41;;;;;;;;;2.67;2.67;;;;;19.43;56.78;98055.84;4980923;28;102336;-91
2021/09/18 09:07:10;;;;;;;;;3.67;2.67;;;;;19.43;56.84;98064.06;4980195;28;102114;-91
2021/09/18 09:09:53;;;;;;;;;2.00;2.00;;;;;19.44;57.19;98061.09;4975356;28;102526;-91
2021/09/18 09:12:28;;;;;;;;;3.33;3.00;;;;;19.45;56.91;98059.19;4977979;28;104074;-91
2021/09/18 09:14:57;;;;;;;;;3.67;2.67;;;;;19.45;56.63;98062.72;4978748;28;102571;-91
2021/09/18 09:17:29;;;;;;;;;3.67;3.67;;;;;19.44;56.67;98063.00;4973453;28;102146;-91
2021/09/18 09:19:57;;;;;;;;;2.67;2.67;;;;;19.42;57.08;98055.03;4982022;28;101941;-91
2021/09/18 09:22:43;;;;;;;;;2.00;2.00;;;;;19.44;57.07;98065.75;4977129;28;104093;-91
2021/09/18 09:25:24;;;;;;;;;3.00;3.00;;;;;19.44;57.12;98057.53;4978151;28;102370;-91
2021/09/18 09:27:52;;;;;;;;;3.67;3.67;;;;;19.43;57.11;98056.72;4976736;28;102470;-91
2021/09/18 09:30:32;;;;;;;;;2.33;2.33;;;;;19.44;56.93;98058.34;4979467;28;102151;-91
2021/09/18 09:33:28;;;;;;;;;2.00;2.00;;;;;19.45;57.09;98054.50;4977282;28;104471;-91
2021/09/18 09:35:55;;;;;;;;;2.00;2.00;;;;;19.48;56.88;98055.91;4975359;28;102664;-91
2021/09/18 09:38:22;;;;;;;;;3.67;3.00;;;;;19.48;57.30;98059.47;4977105;28;103291;-91
2021/09/18 09:40:49;;;;;;;;;2.00;1.67;;;;;19.48;56.98;98066.88;4976589;28;102630;-91
2021/09/18 09:43:18;;;;;;;;;2.33;2.00;;;;;19.45;57.21;98057.25;4976462;28;104114;-91
2021/09/18 09:45:46;;;;;;;;;2.67;2.33;;;;;19.48;56.88;98058.63;4975943;28;102344;-91
2021/09/18 09:48:15;;;;;;;;;2.67;2.33;;;;;19.49;57.29;98058.38;4975314;28;102221;-91
2021/09/18 09:50:44;;;;;;;;;2.00;2.00;;;;;19.49;57.16;98054.81;4975357;28;102348;-91
2021/09/18 09:53:23;;;;;;;;;2.33;2.33;;;;;19.48;57.44;98045.75;4973689;28;104248;-90
2021/09/18 09:55:51;;;;;;;;;2.00;2.00;;;;;19.49;57.44;98050.16;4979536;28;102134;-91
2021/09/18 09:58:18;;;;;;;;;2.67;2.67;;;;;19.48;57.25;98051.25;4975259;28;101996;-91
2021/09/18 10:00:53;;;;;;;;;2.67;2.33;;;;;19.50;57.46;98051.78;4981385;28;102232;-92
2021/09/18 10:03:24;;;;;;;;;2.00;2.00;;;;;19.50;57.64;98046.28;4973780;28;104264;-92
2021/09/18 10:05:52;;;;;;;;;1.33;1.33;;;;;19.48;57.53;98042.19;4979783;28;103066;-92
2021/09/18 10:08:45;;;;;;;;;2.33;2.33;;;;;19.48;57.29;98037.53;4972639;28;102162;-91
2021/09/18 10:11:12;;;;;;;;;2.33;2.00;;;;;19.52;57.37;98048.75;4979566;28;102219;-91
2021/09/18 10:13:39;;;;;;;;;3.33;3.00;;;;;19.53;57.35;98045.75;4976649;28;104383;-91
2021/09/18 10:16:06;;;;;;;;;3.00;2.00;;;;;19.53;57.06;98045.75;4975829;28;102285;-91
2021/09/18 10:18:35;;;;;;;;;1.67;1.67;;;;;19.54;56.85;98041.09;4979181;28;101806;-91
2021/09/18 10:23:30;;;;;;;;;3.00;3.00;;;;;19.56;56.85;98050.69;4972451;28;104243;-91
2021/09/18 10:25:59;;;;;;;;;3.67;3.67;;;;;19.56;57.13;98047.94;4977478;28;102337;-92
2021/09/18 10:28:27;;;;;;;;;2.67;2.33;;;;;19.57;57.59;98051.53;4973801;28;102040;-91
2021/09/18 10:31:11;;;;;;;;;2.67;2.67;;;;;19.56;57.49;98049.88;4976787;28;102783;-91
2021/09/18 10:33:42;;;;;;;;;2.00;2.00;;;;;19.56;57.24;98053.44;4973350;28;104365;-92
2021/09/18 10:36:17;;;;;;;;;1.33;1.33;;;;;19.55;57.22;98054.53;4971416;28;102487;-91
2021/09/18 10:38:50;;;;;;;;;2.67;2.67;;;;;19.56;57.44;98050.69;4975598;28;102651;-91
2021/09/18 10:41:24;;;;;;;;;2.33;2.00;;;;;19.56;57.54;98058.09;4978028;28;102161;-91
2021/09/18 10:43:51;;;;;;;;;2.00;1.33;;;;;19.55;57.55;98060.00;4975516;28;104097;-91
2021/09/18 10:46:47;;;;;;;;;1.00;1.00;;;;;19.57;57.48;98052.34;4973868;28;102499;-91
2021/09/18 10:49:37;;;;;;;;;1.33;1.33;;;;;19.58;56.89;98056.75;4975803;28;102083;-91
2021/09/18 10:52:29;;;;;;;;;1.67;1.67;;;;;19.60;56.78;98060.03;4975433;28;102362;-91
2021/09/18 10:55:03;;;;;;;;;1.67;1.67;;;;;19.60;56.83;98051.78;4975022;28;103975;-91
2021/09/18 10:57:36;;;;;;;;;2.00;2.00;;;;;19.62;56.35;98057.03;4979641;28;102119;-91
2021/09/18 11:00:12;;;;;;;;;1.00;1.00;;;;;19.63;56.43;98055.94;4978064;28;102402;-91
2021/09/18 11:02:41;;;;;;;;;1.33;1.33;;;;;19.63;57.06;98058.66;4977537;28;102298;-91
2021/09/18 11:05:09;;;;;;;;;1.67;1.67;;;;;19.66;57.23;98054.53;4973328;28;104230;-91
2021/09/18 11:07:39;;;;;;;;;1.33;1.00;;;;;19.65;57.06;98059.19;4971648;28;102361;-91
2021/09/18 11:10:11;;;;;;;;;1.67;1.67;;;;;19.67;57.11;98061.69;4976276;28;102160;-91
2021/09/18 11:12:38;;;;;;;;;1.33;1.33;;;;;19.68;56.69;98063.34;4977889;28;103332;-91
2021/09/18 11:15:10;;;;;;;;;0.67;0.67;;;;;19.68;56.37;98058.66;4975730;28;104097;-91
2021/09/18 11:17:42;;;;;;;;;1.00;1.00;;;;;19.68;56.79;98057.84;4977189;28;102065;-91
2021/09/18 11:20:15;;;;;;;;;2.67;2.33;;;;;19.68;57.29;98057.84;4979287;28;102508;-91
2021/09/18 11:22:42;;;;;;;;;1.67;1.00;;;;;19.68;57.24;98055.09;4979065;28;102359;-91
2021/09/18 11:25:26;;;;;;;;;1.00;1.00;;;;;19.68;56.83;98052.38;4972966;28;104091;-91
2021/09/18 11:28:05;;;;;;;;;0.67;0.67;;;;;19.70;56.55;98050.16;4979185;28;102583;-91
2021/09/18 11:30:39;;;;;;;;;1.33;1.33;;;;;19.71;56.03;98049.91;4976252;28;102415;-91
2021/09/18 11:33:06;;;;;;;;;0.67;0.67;;;;;19.72;56.63;98047.97;4974960;28;102574;-91
2021/09/18 11:35:34;;;;;;;;;1.00;1.00;;;;;19.73;56.48;98055.09;4985876;28;104171;-91
2021/09/18 11:38:04;;;;;;;;;1.67;1.67;;;;;19.72;55.99;98058.94;4980017;28;102347;-91
2021/09/18 11:40:35;;;;;;;;;1.00;1.00;;;;;19.73;56.93;98057.84;4971915;28;102387;-91
2021/09/18 11:43:02;;;;;;;;;2.00;1.33;;;;;19.74;56.39;98062.22;4975745;28;102421;-92